Terminal Aerodrome Forecast
Issued by NWS

Home | Current Version | Previous Version | Text Only | Print | Product List | Glossary On
Versions: 1 2 3 4 5 6 7 8 9 10 11 12 13
000
FTUS42 KTBW 291700
TAFRSW
TAF
KRSW 291720Z 2918/3018 08012KT P6SM FEW250
     FM292200 34004KT P6SM FEW250
     FM300100 VRB03KT P6SM FEW250
     FM300800 VRB03KT 6SM BR FEW250=

USA.gov is the U.S. government's official web portal to all federal, state and local government web resources and services.